createdAt,value
2017-07-01T00:01:23.052Z,0
2017-07-01T00:02:37.384Z,0
2017-07-01T00:03:37.532Z,0
2017-07-01T00:05:35.281Z,0
2017-07-01T00:06:37.897Z,0
2017-07-01T00:08:23.440Z,0
2017-07-01T00:09:37.046Z,0
2017-07-01T00:11:03.621Z,0
2017-07-01T00:11:21.802Z,0
2017-07-01T00:12:35.786Z,0
2017-07-01T00:14:37.880Z,0
2017-07-01T00:15:38.979Z,0
2017-07-01T00:16:22.549Z,0
2017-07-01T00:18:21.924Z,0
2017-07-01T00:19:49.300Z,0
2017-07-01T00:20:35.743Z,0
2017-07-01T00:21:35.263Z,0
2017-07-01T00:22:22.324Z,0
2017-07-01T00:23:22.446Z,0
2017-07-01T00:24:22.348Z,0
2017-07-01T00:25:36.700Z,0
2017-07-01T00:26:36.069Z,0
2017-07-01T00:27:22.302Z,0
2017-07-01T00:28:49.973Z,0
2017-07-01T00:32:49.945Z,0
2017-07-01T00:34:35.494Z,0
2017-07-01T00:35:22.050Z,0
2017-07-01T00:37:21.062Z,0
2017-07-01T00:38:51.100Z,0
2017-07-01T00:39:21.188Z,0
2017-07-01T00:40:21.818Z,0
2017-07-01T00:41:36.608Z,0
2017-07-01T00:43:21.367Z,0
2017-07-01T00:44:23.140Z,0
2017-07-01T00:46:36.204Z,0
2017-07-01T00:47:20.914Z,0
2017-07-01T00:48:22.510Z,0
2017-07-01T00:49:34.173Z,0
2017-07-01T00:50:21.667Z,0
2017-07-01T00:51:22.268Z,0
2017-07-01T00:53:37.427Z,0
2017-07-01T00:54:24.448Z,0
2017-07-01T00:55:22.973Z,0
2017-07-01T00:56:28.121Z,0
2017-07-01T00:58:38.657Z,0
2017-07-01T00:59:35.350Z,0
2017-07-01T01:01:35.319Z,0
2017-07-01T01:03:21.544Z,0
2017-07-01T01:04:22.885Z,0
2017-07-01T01:07:35.320Z,0
2017-07-01T01:09:03.597Z,0
2017-07-01T01:09:35.355Z,0
2017-07-01T01:10:35.246Z,0
2017-07-01T01:11:36.376Z,0
2017-07-01T01:12:37.368Z,0
2017-07-01T01:14:51.129Z,0
2017-07-01T01:15:49.101Z,0
2017-07-01T01:16:21.751Z,0
2017-07-01T01:17:36.297Z,0
2017-07-01T01:18:22.270Z,0
2017-07-01T01:19:34.338Z,0
2017-07-01T01:20:21.490Z,0
2017-07-01T01:21:35.401Z,0
2017-07-01T01:22:22.265Z,0
2017-07-01T01:23:49.992Z,0
2017-07-01T01:25:34.541Z,0
2017-07-01T01:28:20.194Z,0
2017-07-01T01:29:20.894Z,0
2017-07-01T01:30:21.334Z,0
2017-07-01T01:32:20.440Z,0
2017-07-01T01:33:35.293Z,0
2017-07-01T01:34:35.278Z,0
2017-07-01T01:35:22.677Z,0
2017-07-01T01:37:36.320Z,0
2017-07-01T01:38:33.637Z,0
2017-07-01T01:40:34.931Z,0
2017-07-01T01:42:21.285Z,0
2017-07-01T01:43:23.168Z,0
2017-07-01T01:44:22.273Z,0
2017-07-01T01:45:36.471Z,0
2017-07-01T01:46:49.235Z,0
2017-07-01T01:47:20.211Z,0
2017-07-01T01:48:20.808Z,0
2017-07-01T01:49:34.739Z,0
2017-07-01T01:51:35.977Z,0
2017-07-01T01:52:23.504Z,0
2017-07-01T01:53:36.314Z,0
2017-07-01T01:54:21.110Z,0
2017-07-01T01:56:34.267Z,0
2017-07-01T01:57:34.049Z,0
2017-07-01T01:58:34.905Z,0
2017-07-01T02:00:48.013Z,0
2017-07-01T02:01:34.867Z,0
2017-07-01T02:02:37.111Z,0
2017-07-01T02:04:21.826Z,0
2017-07-01T02:06:48.319Z,0
2017-07-01T02:08:02.308Z,0
2017-07-01T02:08:35.482Z,0
2017-07-01T02:09:34.578Z,0
2017-07-01T02:10:21.929Z,0
2017-07-01T02:11:49.314Z,0
2017-07-01T02:12:20.616Z,0
2017-07-01T02:13:20.191Z,0
2017-07-01T02:14:36.600Z,0
2017-07-01T02:15:21.217Z,0
2017-07-01T02:16:20.451Z,0
2017-07-01T02:17:34.563Z,0
2017-07-01T02:18:34.940Z,0
2017-07-01T02:19:21.524Z,0
2017-07-01T02:20:20.981Z,0
2017-07-01T02:21:20.543Z,0
2017-07-01T02:22:49.491Z,0
2017-07-01T02:23:20.320Z,0
2017-07-01T02:24:34.835Z,0
2017-07-01T02:26:34.848Z,0
2017-07-01T02:27:19.189Z,0
2017-07-01T02:28:22.229Z,0
2017-07-01T02:29:21.428Z,0
2017-07-01T02:31:34.138Z,0
2017-07-01T02:32:47.914Z,0
2017-07-01T02:33:35.169Z,0
2017-07-01T02:34:21.122Z,0
2017-07-01T02:35:35.274Z,0
2017-07-01T02:36:23.437Z,0
2017-07-01T02:37:20.642Z,0
2017-07-01T02:38:33.835Z,0
2017-07-01T02:39:35.210Z,0
2017-07-01T02:40:20.667Z,0
2017-07-01T02:41:23.029Z,0
2017-07-01T02:42:19.747Z,0
2017-07-01T02:43:39.415Z,0
2017-07-01T02:44:46.929Z,0
2017-07-01T02:45:34.924Z,0
2017-07-01T02:46:35.371Z,0
2017-07-01T02:48:20.271Z,0
2017-07-01T02:49:34.463Z,0
2017-07-01T02:50:19.425Z,0
2017-07-01T02:51:34.109Z,0
2017-07-01T02:52:19.861Z,0
2017-07-01T02:53:20.055Z,0
2017-07-01T02:54:32.970Z,0
2017-07-01T02:55:19.749Z,0
2017-07-01T02:57:20.118Z,0
2017-07-01T03:00:18.915Z,0
2017-07-01T03:01:33.257Z,0
2017-07-01T03:02:35.229Z,0
2017-07-01T03:03:32.819Z,0
2017-07-01T03:04:48.427Z,0
2017-07-01T03:05:47.796Z,0
2017-07-01T03:06:17.957Z,0
2017-07-01T03:07:36.964Z,0
2017-07-01T03:09:00.838Z,0
2017-07-01T03:10:19.302Z,0
2017-07-01T03:12:46.471Z,0
2017-07-01T03:13:34.687Z,0
2017-07-01T03:14:46.344Z,0
2017-07-01T03:15:33.827Z,0
2017-07-01T03:16:32.810Z,0
2017-07-01T03:18:15.411Z,0
2017-07-01T03:19:30.016Z,0
2017-07-01T03:21:29.567Z,0
2017-07-01T03:22:29.496Z,0
2017-07-01T03:24:42.660Z,0
2017-07-01T03:25:42.237Z,0
2017-07-01T03:27:27.763Z,0
2017-07-01T03:28:42.624Z,5
2017-07-01T03:29:29.198Z,5
2017-07-01T03:31:27.328Z,5
2017-07-01T03:32:29.332Z,5
2017-07-01T03:33:28.581Z,5
2017-07-01T03:34:41.493Z,5
2017-07-01T03:37:55.760Z,10
2017-07-01T03:38:57.873Z,10
2017-07-01T03:39:42.131Z,10
2017-07-01T03:40:55.707Z,10
2017-07-01T03:41:27.995Z,10
2017-07-01T03:42:28.641Z,10
2017-07-01T03:43:42.162Z,10
2017-07-01T03:44:42.812Z,15
2017-07-01T03:45:28.027Z,15
2017-07-01T03:46:28.985Z,15
2017-07-01T03:49:11.699Z,15
2017-07-01T03:49:28.504Z,15
2017-07-01T03:50:41.267Z,15
2017-07-01T03:51:43.061Z,20
2017-07-01T03:52:32.551Z,20
2017-07-01T03:54:30.287Z,25
2017-07-01T03:55:29.585Z,25
2017-07-01T03:56:41.562Z,25
2017-07-01T03:58:28.005Z,25
2017-07-01T03:59:26.920Z,25
2017-07-01T04:00:27.903Z,25
2017-07-01T04:01:27.484Z,25
2017-07-01T04:04:42.313Z,30
2017-07-01T04:06:58.653Z,40
2017-07-01T04:07:42.420Z,40
2017-07-01T04:08:27.680Z,45
2017-07-01T04:09:26.007Z,55
2017-07-01T04:10:28.894Z,60
2017-07-01T04:11:29.067Z,70
2017-07-01T04:13:41.406Z,60
2017-07-01T04:14:28.099Z,65
2017-07-01T04:15:27.476Z,75
2017-07-01T04:16:28.854Z,75
2017-07-01T04:19:55.485Z,65
2017-07-01T04:20:27.820Z,70
2017-07-01T04:21:42.597Z,70
2017-07-01T04:24:41.347Z,80
2017-07-01T04:25:28.555Z,90
2017-07-01T04:26:42.121Z,90
2017-07-01T04:27:43.282Z,80
2017-07-01T04:28:40.676Z,65
2017-07-01T04:31:42.895Z,85
2017-07-01T04:32:27.883Z,95
2017-07-01T04:33:40.810Z,105
2017-07-01T04:36:56.287Z,90
2017-07-01T04:37:42.764Z,115
2017-07-01T04:38:26.022Z,165
2017-07-01T04:39:40.775Z,170
2017-07-01T04:41:27.398Z,180
2017-07-01T04:42:27.283Z,185
2017-07-01T04:43:55.868Z,195
2017-07-01T04:44:40.850Z,195
2017-07-01T04:46:40.002Z,195
2017-07-01T04:47:54.181Z,265
2017-07-01T04:48:26.969Z,310
2017-07-01T04:51:28.341Z,270
2017-07-01T04:53:41.115Z,280
2017-07-01T04:54:26.273Z,365
2017-07-01T04:55:42.651Z,265
2017-07-01T04:56:26.078Z,260
2017-07-01T04:57:27.299Z,265
2017-07-01T04:58:56.023Z,330
2017-07-01T05:01:28.456Z,650
2017-07-01T05:02:26.263Z,740
2017-07-01T05:04:28.367Z,670
2017-07-01T05:05:25.929Z,710
2017-07-01T05:07:30.747Z,515
2017-07-01T05:08:26.950Z,925
2017-07-01T05:09:26.462Z,560
2017-07-01T05:11:41.678Z,515
2017-07-01T05:12:29.239Z,595
2017-07-01T05:14:00.463Z,515
2017-07-01T05:14:39.212Z,535
2017-07-01T05:17:41.565Z,475
2017-07-01T05:18:28.354Z,465
2017-07-01T05:19:27.317Z,450
2017-07-01T05:20:27.104Z,445
2017-07-01T05:21:39.467Z,410
2017-07-01T05:22:54.896Z,385
2017-07-01T05:23:27.679Z,375
2017-07-01T05:24:39.836Z,380
2017-07-01T05:27:44.369Z,480
2017-07-01T05:29:40.784Z,580
2017-07-01T05:30:54.167Z,855
2017-07-01T05:31:41.430Z,775
2017-07-01T05:32:40.127Z,770
2017-07-01T05:33:39.522Z,790
2017-07-01T05:34:27.792Z,920
2017-07-01T05:35:39.990Z,845
2017-07-01T05:37:40.270Z,1060
2017-07-01T05:39:39.426Z,1145
2017-07-01T05:40:40.227Z,1150
2017-07-01T05:41:56.092Z,855
2017-07-01T05:42:40.211Z,605
2017-07-01T05:43:27.177Z,800
2017-07-01T05:44:40.237Z,1075
2017-07-01T05:45:54.377Z,775
2017-07-01T05:46:40.565Z,810
2017-07-01T05:47:40.940Z,750
2017-07-01T05:48:43.858Z,605
2017-07-01T05:50:54.496Z,650
2017-07-01T05:51:27.414Z,705
2017-07-01T05:52:54.473Z,1820
2017-07-01T05:53:27.323Z,1350
2017-07-01T05:54:26.846Z,1210
2017-07-01T05:55:28.501Z,705
2017-07-01T05:56:40.408Z,1045
2017-07-01T05:57:40.263Z,1645
2017-07-01T05:58:39.180Z,1840
2017-07-01T05:59:25.662Z,845
2017-07-01T06:00:27.376Z,405
2017-07-01T06:01:42.376Z,430
2017-07-01T06:02:26.995Z,490
2017-07-01T06:03:27.137Z,605
2017-07-01T06:05:28.070Z,635
2017-07-01T06:06:55.296Z,500
2017-07-01T06:07:27.101Z,440
2017-07-01T06:08:27.774Z,415
2017-07-01T06:09:26.309Z,315
2017-07-01T06:11:25.604Z,355
2017-07-01T06:12:26.402Z,330
2017-07-01T06:13:39.789Z,290
2017-07-01T06:15:40.572Z,275
2017-07-01T06:16:42.475Z,260
2017-07-01T06:17:41.942Z,300
2017-07-01T06:18:25.297Z,350
2017-07-01T06:19:26.104Z,400
2017-07-01T06:20:26.485Z,405
2017-07-01T06:22:28.283Z,415
2017-07-01T06:23:27.258Z,375
2017-07-01T06:24:53.823Z,425
2017-07-01T06:25:26.679Z,560
2017-07-01T06:27:53.787Z,360
2017-07-01T06:28:26.377Z,380
2017-07-01T06:30:40.552Z,480
2017-07-01T06:31:25.582Z,575
2017-07-01T06:33:38.482Z,610
2017-07-01T06:34:26.228Z,575
2017-07-01T06:35:26.872Z,555
2017-07-01T06:36:25.660Z,475
2017-07-01T06:37:40.636Z,430
2017-07-01T06:38:39.428Z,445
2017-07-01T06:40:24.290Z,370
2017-07-01T06:41:26.175Z,435
2017-07-01T06:42:40.580Z,715
2017-07-01T06:43:25.813Z,800
2017-07-01T06:44:39.716Z,620
2017-07-01T06:45:37.806Z,575
2017-07-01T06:46:25.367Z,680
2017-07-01T06:47:40.521Z,750
2017-07-01T06:49:41.273Z,580
2017-07-01T06:52:02.308Z,515
2017-07-01T06:52:48.800Z,485
2017-07-01T06:55:17.139Z,450
2017-07-01T06:56:01.738Z,485
2017-07-01T06:56:51.629Z,495
2017-07-01T06:59:05.806Z,460
2017-07-01T07:00:01.782Z,400
2017-07-01T07:01:03.896Z,475
2017-07-01T07:01:46.845Z,440
2017-07-01T07:04:16.035Z,2160
2017-07-01T07:05:02.416Z,1045
2017-07-01T07:06:01.816Z,1260
2017-07-01T07:07:01.387Z,685
2017-07-01T07:07:47.768Z,515
2017-07-01T07:09:01.560Z,605
2017-07-01T07:10:30.560Z,870
2017-07-01T07:11:02.132Z,655
2017-07-01T07:11:47.821Z,535
2017-07-01T07:13:03.145Z,515
2017-07-01T07:14:02.703Z,795
2017-07-01T07:14:47.272Z,1105
2017-07-01T07:16:48.510Z,975
2017-07-01T07:17:48.358Z,1140
2017-07-01T07:19:02.441Z,870
2017-07-01T07:19:51.624Z,725
2017-07-01T07:21:16.403Z,675
2017-07-01T07:21:48.281Z,700
2017-07-01T07:23:18.990Z,1625
2017-07-01T07:24:00.672Z,1815
2017-07-01T07:25:03.069Z,1315
2017-07-01T07:26:29.929Z,2395
2017-07-01T07:28:18.118Z,2810
2017-07-01T07:29:01.928Z,1410
2017-07-01T07:30:02.433Z,2785
2017-07-01T07:32:18.241Z,2975
2017-07-01T07:33:02.987Z,3050
2017-07-01T07:35:01.789Z,880
2017-07-01T07:36:01.571Z,1680
2017-07-01T07:37:02.159Z,2560
2017-07-01T07:38:03.554Z,2955
2017-07-01T07:38:48.202Z,2940
2017-07-01T07:40:47.971Z,1330
2017-07-01T07:41:49.757Z,1705
2017-07-01T07:42:47.833Z,2115
2017-07-01T07:43:49.354Z,1905
2017-07-01T07:45:29.847Z,1515
2017-07-01T07:46:29.223Z,1685
2017-07-01T07:46:47.292Z,1605
2017-07-01T07:47:47.400Z,1430
2017-07-01T07:48:54.568Z,1635
2017-07-01T07:49:48.901Z,1590
2017-07-01T07:51:01.954Z,1750
2017-07-01T07:52:16.965Z,2120
2017-07-01T07:53:02.593Z,1810
2017-07-01T07:54:01.322Z,1290
2017-07-01T07:55:15.496Z,1085
2017-07-01T07:55:47.544Z,1065
2017-07-01T07:56:48.677Z,995
2017-07-01T07:58:03.943Z,895
2017-07-01T07:58:48.880Z,940
2017-07-01T07:59:50.029Z,875
2017-07-01T08:01:00.816Z,900
2017-07-01T08:03:30.596Z,660
2017-07-01T08:03:48.545Z,650
2017-07-01T08:05:00.431Z,630
2017-07-01T08:06:14.720Z,710
2017-07-01T08:06:51.348Z,740
2017-07-01T08:08:49.272Z,920
2017-07-01T08:11:14.345Z,1270
2017-07-01T08:11:48.250Z,1150
2017-07-01T08:12:49.038Z,1030
2017-07-01T08:15:04.439Z,1370
2017-07-01T08:15:48.166Z,1120
2017-07-01T08:16:48.646Z,1150
2017-07-01T08:19:01.729Z,1170
2017-07-01T08:20:01.329Z,1325
2017-07-01T08:20:47.163Z,1580
2017-07-01T08:22:29.094Z,2245
2017-07-01T08:23:02.690Z,2225
2017-07-01T08:24:07.930Z,2680
2017-07-01T08:25:15.246Z,3320
2017-07-01T08:28:46.781Z,1830
2017-07-01T08:30:15.781Z,1975
2017-07-01T08:31:15.566Z,1915
2017-07-01T08:32:16.410Z,2455
2017-07-01T08:32:46.584Z,2180
2017-07-01T08:34:15.095Z,3815
2017-07-01T08:36:00.480Z,2035
2017-07-01T08:38:14.921Z,1895
2017-07-01T08:40:14.433Z,2075
2017-07-01T08:40:46.413Z,3650
2017-07-01T08:41:45.582Z,2335
2017-07-01T08:43:02.470Z,2785
2017-07-01T08:44:48.561Z,3350
2017-07-01T08:46:02.170Z,2370
2017-07-01T08:48:46.764Z,2730
2017-07-01T08:51:14.889Z,2840
2017-07-01T08:54:14.449Z,3140
2017-07-01T08:55:00.641Z,2145
2017-07-01T08:56:15.022Z,2280
2017-07-01T08:56:47.009Z,3190
2017-07-01T08:58:00.585Z,3145
2017-07-01T08:59:48.587Z,2670
2017-07-01T09:01:01.559Z,1740
2017-07-01T09:02:00.127Z,2415
2017-07-01T09:03:14.830Z,2915
2017-07-01T09:06:58.946Z,2115
2017-07-01T09:10:03.511Z,2140
2017-07-01T09:10:59.639Z,1525
2017-07-01T09:12:14.459Z,1390
2017-07-01T09:13:00.645Z,3965
2017-07-01T09:16:00.136Z,2770
2017-07-01T09:18:01.510Z,3665
2017-07-01T09:19:15.167Z,2570
2017-07-01T09:20:01.104Z,2025
2017-07-01T09:21:14.741Z,2480
2017-07-01T09:21:49.096Z,2830
2017-07-01T09:22:46.621Z,3370
2017-07-01T09:24:02.310Z,3825
2017-07-01T09:26:14.673Z,2145
2017-07-01T09:27:00.182Z,5040
2017-07-01T09:28:02.066Z,5445
2017-07-01T09:29:47.751Z,6185
2017-07-01T09:31:01.156Z,5330
2017-07-01T09:31:59.808Z,3720
2017-07-01T09:33:14.726Z,4770
2017-07-01T09:35:00.748Z,4680
2017-07-01T09:37:14.062Z,2020
2017-07-01T09:37:50.082Z,3360
2017-07-01T09:38:48.121Z,4440
2017-07-01T09:39:47.635Z,4805
2017-07-01T09:41:15.003Z,4050
2017-07-01T09:42:01.683Z,1575
2017-07-01T09:43:47.376Z,1730
2017-07-01T09:44:48.841Z,4160
2017-07-01T09:46:46.323Z,2725
2017-07-01T09:47:48.195Z,5375
2017-07-01T09:48:59.099Z,1605
2017-07-01T09:51:14.462Z,1650
2017-07-01T09:51:48.095Z,2040
2017-07-01T09:52:45.653Z,3570
2017-07-01T09:53:45.432Z,5755
2017-07-01T09:55:15.111Z,3070
2017-07-01T09:55:59.172Z,2825
2017-07-01T09:56:46.812Z,6105
2017-07-01T09:57:51.656Z,1825
2017-07-01T09:58:46.657Z,4145
2017-07-01T10:02:15.153Z,1555
2017-07-01T10:03:04.441Z,1485
2017-07-01T10:03:45.720Z,3625
2017-07-01T10:04:49.041Z,3460
2017-07-01T10:05:47.201Z,2260
2017-07-01T10:07:14.266Z,2735
2017-07-01T10:08:44.850Z,2675
2017-07-01T10:09:47.057Z,2405
2017-07-01T10:11:14.844Z,2605
2017-07-01T10:12:00.484Z,2235
2017-07-01T10:12:45.020Z,2295
2017-07-01T10:13:46.327Z,1800
2017-07-01T10:14:46.647Z,1395
2017-07-01T10:15:45.456Z,1160
2017-07-01T10:17:48.457Z,1655
2017-07-01T10:19:14.349Z,1725
2017-07-01T10:24:11.932Z,2085
2017-07-01T10:24:53.478Z,1455
2017-07-01T10:25:28.287Z,2025
2017-07-01T10:26:38.836Z,2010
2017-07-01T10:27:54.875Z,3135
2017-07-01T10:28:25.518Z,1985
2017-07-01T10:29:53.430Z,2405
2017-07-01T10:30:25.805Z,2705
2017-07-01T10:31:39.020Z,6435
2017-07-01T10:32:23.760Z,4265
2017-07-01T10:33:37.636Z,2965
2017-07-01T10:35:00.195Z,2575
2017-07-01T10:35:40.742Z,3045
2017-07-01T10:36:39.113Z,2620
2017-07-01T10:39:38.880Z,1635
2017-07-01T10:40:39.018Z,2535
2017-07-01T10:41:39.776Z,2000
2017-07-01T10:42:25.495Z,1695
2017-07-01T10:43:53.033Z,4560
2017-07-01T10:45:06.210Z,2705
2017-07-01T10:45:23.069Z,3560
2017-07-01T10:46:25.789Z,6295
2017-07-01T10:47:24.783Z,4950
2017-07-01T10:48:26.049Z,5755
2017-07-01T10:50:21.169Z,2705
2017-07-01T10:50:48.911Z,2345
2017-07-01T10:51:47.597Z,2465
2017-07-01T10:54:02.135Z,1920
2017-07-01T10:55:56.886Z,1510
2017-07-01T10:56:56.199Z,1250
2017-07-01T10:58:11.609Z,990
2017-07-01T11:01:11.176Z,1105
2017-07-01T11:01:42.538Z,1230
2017-07-01T11:02:57.962Z,1230
2017-07-01T11:03:44.231Z,1110
2017-07-01T11:04:45.617Z,1090
2017-07-01T11:07:57.082Z,1155
2017-07-01T11:08:56.682Z,1550
2017-07-01T11:10:56.472Z,2325
2017-07-01T11:12:41.421Z,2215
2017-07-01T11:14:42.045Z,1910
2017-07-01T11:15:57.699Z,1825
2017-07-01T11:16:46.252Z,1925
2017-07-01T11:17:43.900Z,1995
2017-07-01T11:18:42.000Z,2080
2017-07-01T11:19:42.841Z,1835
2017-07-01T11:22:11.501Z,1580
2017-07-01T11:23:10.906Z,1560
2017-07-01T11:23:42.743Z,1535
2017-07-01T11:25:12.768Z,1565
2017-07-01T11:25:42.369Z,1555
2017-07-01T11:26:56.816Z,1555
2017-07-01T11:27:57.663Z,1930
2017-07-01T11:28:46.654Z,2020
2017-07-01T11:31:57.002Z,1780
2017-07-01T11:34:41.860Z,2920
2017-07-01T11:35:43.818Z,3680
2017-07-01T11:36:42.799Z,3915
2017-07-01T11:37:42.318Z,4380
2017-07-01T11:38:45.511Z,4770
2017-07-01T11:40:10.708Z,4320
2017-07-01T11:41:42.063Z,4320
2017-07-01T11:42:41.461Z,4805
2017-07-01T11:43:57.670Z,5100
2017-07-01T11:46:45.816Z,4345
2017-07-01T11:47:57.224Z,4250
2017-07-01T11:49:56.388Z,5160
2017-07-01T11:50:56.578Z,4890
2017-07-01T11:52:25.650Z,6975
2017-07-01T11:53:25.207Z,1655
2017-07-01T11:53:54.836Z,1825
2017-07-01T11:55:12.158Z,1450
2017-07-01T11:55:58.301Z,1575
2017-07-01T11:56:55.512Z,1850
2017-07-01T11:57:56.112Z,2195
2017-07-01T11:58:55.698Z,2205
2017-07-01T11:59:42.943Z,2345
2017-07-01T12:00:56.489Z,2515
2017-07-01T12:01:43.639Z,2505
2017-07-01T12:02:42.871Z,2550
2017-07-01T12:05:11.055Z,2420
2017-07-01T12:06:09.839Z,2140
2017-07-01T12:06:43.080Z,2020
2017-07-01T12:07:41.604Z,1715
2017-07-01T12:08:42.303Z,1580
2017-07-01T12:09:41.782Z,1630
2017-07-01T12:11:23.583Z,3190
2017-07-01T12:11:43.429Z,8530
2017-07-01T12:13:58.245Z,1705
2017-07-01T12:14:57.971Z,1575
2017-07-01T12:17:09.733Z,1400
2017-07-01T12:17:58.758Z,1505
2017-07-01T12:19:09.496Z,2625
2017-07-01T12:20:41.575Z,2665
2017-07-01T12:21:57.001Z,2915
2017-07-01T12:22:54.461Z,3225
2017-07-01T12:23:41.647Z,3285
2017-07-01T12:25:44.321Z,3145
2017-07-01T12:27:43.443Z,1560
2017-07-01T12:29:55.390Z,1175
2017-07-01T12:31:24.407Z,1115
2017-07-01T12:32:37.986Z,1120
2017-07-01T12:32:51.194Z,1120
2017-07-01T12:34:20.920Z,1005
2017-07-01T12:37:06.854Z,1315
2017-07-01T12:37:50.663Z,1300
2017-07-01T12:43:50.807Z,1305
2017-07-01T12:45:04.595Z,1390
2017-07-01T12:46:04.170Z,1440
2017-07-01T12:47:04.368Z,1520
2017-07-01T12:48:05.730Z,1750
2017-07-01T12:48:56.610Z,1530
2017-07-01T12:49:52.150Z,1500
2017-07-01T12:50:51.938Z,1425
2017-07-01T12:55:34.506Z,1335
2017-07-01T12:55:57.739Z,1425
2017-07-01T12:57:21.898Z,1580
2017-07-01T12:58:04.808Z,1575
2017-07-01T12:59:05.958Z,1585
2017-07-01T12:59:50.271Z,1530
2017-07-01T13:02:32.604Z,1320
2017-07-01T13:03:52.589Z,1315
2017-07-01T13:05:04.154Z,1400
2017-07-01T13:06:03.535Z,1350
2017-07-01T13:07:51.523Z,1075
2017-07-01T13:13:50.247Z,580
2017-07-01T13:15:07.679Z,655
2017-07-01T13:15:50.228Z,710
2017-07-01T13:17:04.824Z,730
2017-07-01T13:18:50.457Z,670
2017-07-01T13:21:50.139Z,625
2017-07-01T13:23:03.949Z,625
2017-07-01T13:24:19.530Z,635
2017-07-01T13:24:50.770Z,620
2017-07-01T13:26:06.931Z,665
2017-07-01T13:27:03.911Z,730
2017-07-01T13:28:05.505Z,785
2017-07-01T13:28:51.355Z,870
2017-07-01T13:30:17.861Z,1455
2017-07-01T13:30:51.471Z,1555
2017-07-01T13:35:03.607Z,2910
2017-07-01T13:36:03.994Z,2800
2017-07-01T13:38:31.768Z,3340
2017-07-01T13:39:19.230Z,2680
2017-07-01T13:39:51.160Z,1855
2017-07-01T13:42:03.308Z,1345
2017-07-01T13:45:49.359Z,1095
2017-07-01T13:48:19.470Z,835
2017-07-01T13:48:50.502Z,810
2017-07-01T13:49:49.827Z,745
2017-07-01T13:51:04.434Z,720
2017-07-01T13:51:51.196Z,650
2017-07-01T13:53:50.642Z,605
2017-07-01T13:55:07.021Z,625
2017-07-01T13:56:32.366Z,735
2017-07-01T13:57:48.716Z,810
2017-07-01T13:59:17.925Z,890
2017-07-01T13:59:51.700Z,880
2017-07-01T14:01:04.294Z,805
2017-07-01T14:01:50.051Z,730
2017-07-01T14:02:52.640Z,610
2017-07-01T14:04:04.048Z,645
2017-07-01T14:05:03.820Z,665
2017-07-01T14:05:52.064Z,635
2017-07-01T14:07:03.605Z,760
2017-07-01T14:07:50.416Z,825
2017-07-01T14:09:03.771Z,775
2017-07-01T14:09:52.206Z,805
2017-07-01T14:10:55.026Z,815
2017-07-01T14:13:03.137Z,830
2017-07-01T14:13:51.751Z,915
2017-07-01T14:15:53.697Z,870
2017-07-01T14:17:03.654Z,780
2017-07-01T14:18:04.469Z,805
2017-07-01T14:19:17.248Z,765
2017-07-01T14:20:05.156Z,670
2017-07-01T14:22:03.397Z,635
2017-07-01T14:23:06.223Z,660
2017-07-01T14:23:51.830Z,685
2017-07-01T14:26:03.557Z,645
2017-07-01T14:27:04.759Z,640
2017-07-01T14:29:05.144Z,575
2017-07-01T14:30:18.488Z,625
2017-07-01T14:30:49.793Z,685
2017-07-01T14:32:51.122Z,670
2017-07-01T14:33:52.486Z,590
2017-07-01T14:34:49.685Z,530
2017-07-01T14:36:07.864Z,500
2017-07-01T14:37:19.902Z,455
2017-07-01T14:49:22.244Z,685
2017-07-01T14:50:11.055Z,680
2017-07-01T14:51:12.577Z,540
2017-07-01T14:52:25.197Z,450
2017-07-01T14:53:22.898Z,420
2017-07-01T14:54:10.109Z,420
2017-07-01T14:55:09.447Z,425
2017-07-01T14:56:09.260Z,475
2017-07-01T14:57:08.601Z,470
2017-07-01T14:58:08.625Z,425
2017-07-01T15:00:26.199Z,340
2017-07-01T15:02:37.185Z,305
2017-07-01T15:03:22.253Z,275
2017-07-01T15:04:09.956Z,240
2017-07-01T15:05:11.155Z,230
2017-07-01T15:06:36.213Z,230
2017-07-01T15:07:23.518Z,230
2017-07-01T15:08:36.496Z,230
2017-07-01T15:09:09.084Z,235
2017-07-01T15:10:22.978Z,250
2017-07-01T15:11:09.316Z,255
2017-07-01T15:12:24.465Z,275
2017-07-01T15:14:08.411Z,270
2017-07-01T15:17:23.138Z,320
2017-07-01T15:18:23.418Z,345
2017-07-01T15:19:24.042Z,340
2017-07-01T15:20:08.791Z,335
2017-07-01T15:22:52.192Z,280
2017-07-01T15:23:21.683Z,260
2017-07-01T15:24:23.162Z,235
2017-07-01T15:25:23.153Z,225
2017-07-01T15:26:22.467Z,195
2017-07-01T15:28:08.104Z,160
2017-07-01T15:29:22.328Z,155
2017-07-01T15:31:08.313Z,130
2017-07-01T15:32:09.142Z,120
2017-07-01T15:33:22.770Z,110
2017-07-01T15:34:08.652Z,110
2017-07-01T15:36:21.314Z,115
2017-07-01T15:37:09.536Z,110
2017-07-01T15:39:22.305Z,115
2017-07-01T15:40:08.008Z,115
2017-07-01T15:41:37.341Z,110
2017-07-01T15:42:36.648Z,100
2017-07-01T15:43:21.121Z,100
2017-07-01T15:44:24.020Z,105
2017-07-01T15:46:08.205Z,105
2017-07-01T15:47:08.662Z,115
2017-07-01T15:48:50.175Z,110
2017-07-01T15:49:08.771Z,110
2017-07-01T15:50:43.823Z,95
2017-07-01T15:54:07.702Z,90
2017-07-01T15:55:23.707Z,105
2017-07-01T15:59:09.444Z,125
2017-07-01T16:00:22.612Z,140
2017-07-01T16:01:07.889Z,145
2017-07-01T16:02:09.598Z,160
2017-07-01T16:03:08.420Z,165
2017-07-01T16:05:09.158Z,195
2017-07-01T16:06:24.179Z,205
2017-07-01T16:07:08.911Z,215
2017-07-01T16:09:22.676Z,235
2017-07-01T16:10:08.487Z,225
2017-07-01T16:11:07.844Z,215
2017-07-01T16:12:10.370Z,285
2017-07-01T16:14:23.010Z,285
2017-07-01T16:15:21.986Z,285
2017-07-01T16:16:25.396Z,235
2017-07-01T16:17:21.942Z,290
2017-07-01T16:18:20.534Z,280
2017-07-01T16:19:21.981Z,260
2017-07-01T16:20:09.716Z,225
2017-07-01T16:21:21.382Z,185
2017-07-01T16:22:22.179Z,155
2017-07-01T16:23:21.763Z,155
2017-07-01T16:26:07.826Z,225
2017-07-01T16:27:22.270Z,175
2017-07-01T16:28:23.804Z,190
2017-07-01T16:29:36.785Z,165
2017-07-01T16:30:21.151Z,180
2017-07-01T16:31:35.531Z,210
2017-07-01T16:32:07.594Z,200
2017-07-01T16:36:05.759Z,110
2017-07-01T16:37:21.443Z,110
2017-07-01T16:38:09.817Z,110
2017-07-01T16:41:29.875Z,120
2017-07-01T16:42:21.175Z,150
2017-07-01T16:43:08.235Z,120
2017-07-01T16:44:12.186Z,120
2017-07-01T16:45:36.336Z,120
2017-07-01T16:46:09.617Z,115
2017-07-01T16:48:07.131Z,125
2017-07-01T16:49:39.473Z,120
2017-07-01T16:50:20.840Z,145
2017-07-01T16:52:36.296Z,125
2017-07-01T16:53:07.904Z,105
2017-07-01T16:55:49.266Z,80
2017-07-01T16:56:21.420Z,75
2017-07-01T16:58:35.123Z,90
2017-07-01T16:59:09.297Z,115
2017-07-01T17:01:22.477Z,130
2017-07-01T17:02:09.923Z,120
2017-07-01T17:04:06.512Z,135
2017-07-01T17:05:22.288Z,135
2017-07-01T17:06:07.603Z,175
2017-07-01T17:08:07.981Z,130
2017-07-01T17:09:08.365Z,125
2017-07-01T17:10:23.571Z,125
2017-07-01T17:11:08.912Z,110
2017-07-01T17:12:06.754Z,125
2017-07-01T17:13:36.197Z,145
2017-07-01T17:16:03.061Z,125
2017-07-01T17:17:17.847Z,145
2017-07-01T17:18:18.239Z,120
2017-07-01T17:19:57.755Z,120
2017-07-01T17:20:45.618Z,135
2017-07-01T17:21:29.114Z,130
2017-07-01T17:22:29.901Z,115
2017-07-01T17:23:31.159Z,120
2017-07-01T17:25:46.494Z,100
2017-07-01T17:26:16.702Z,95
2017-07-01T17:28:30.806Z,85
2017-07-01T17:29:43.385Z,95
2017-07-01T17:30:28.968Z,105
2017-07-01T17:32:29.962Z,105
2017-07-01T17:33:30.197Z,145
2017-07-01T17:34:29.894Z,130
2017-07-01T17:35:28.491Z,115
2017-07-01T17:36:43.489Z,145
2017-07-01T17:40:37.469Z,290
2017-07-01T17:46:25.392Z,185
2017-07-01T17:47:54.297Z,155
2017-07-01T17:48:39.166Z,135
2017-07-01T17:49:23.442Z,115
2017-07-01T17:50:41.555Z,110
2017-07-01T17:51:38.297Z,90
2017-07-01T17:53:06.504Z,80
2017-07-01T17:53:26.150Z,75
2017-07-01T17:54:24.049Z,80
2017-07-01T17:55:38.648Z,95
2017-07-01T17:56:38.280Z,80
2017-07-01T17:57:38.416Z,110
2017-07-01T17:59:37.467Z,80
2017-07-01T18:00:52.976Z,75
2017-07-01T18:01:25.225Z,105
2017-07-01T18:02:40.538Z,85
2017-07-01T18:04:23.698Z,60
2017-07-01T18:05:52.500Z,60
2017-07-01T18:06:38.946Z,60
2017-07-01T18:07:40.132Z,40
2017-07-01T18:08:39.851Z,45
2017-07-01T18:09:24.216Z,45
2017-07-01T18:10:51.380Z,30
2017-07-01T18:11:38.598Z,30
2017-07-01T18:12:52.322Z,35
2017-07-01T18:15:05.951Z,150
2017-07-01T18:15:52.741Z,135